Terminal Aerodrome Forecast
Issued by NWS

Home | Current Version | Previous Version | Text Only | Print | Product List | Glossary Off
Versions: 1 2 3 4 5 6 7 8 9 10 11 12 13 14 15

000
FTUS42 KTBW 270520
TAFPIE
TAF
KPIE 270520Z 2706/2806 00000KT P6SM BKN050 BKN250
     FM271400 VRB04KT P6SM FEW030 SCT250
     FM271800 26007KT P6SM SCT040 SCT250
     FM272100 29008KT P6SM FEW045 SCT250
     FM280200 VRB03KT P6SM FEW040 BKN250=

USA.gov is the U.S. government's official web portal to all federal, state and local government web resources and services.